Time;durP1;ratioP1;P1;durP2;ratioP2;P2;SDS_P1;SDS_P2;PMS_P1;PMS_P2;Temp;Humidity;BMP_temperature;BMP_pressure;BME280_temperature;BME280_humidity;BME280_pressure;Samples;Min_cycle;Max_cycle;Signal;HPM_P1;HPM_P2
2023/08/09 00:00:46;;;;;;;3.35;1.83;;;;;;;-145.68;94.13;73697.69;10451388;28;20702;-69
2023/08/09 00:05:47;;;;;;;6.63;2.03;;;;;;;-145.68;95.91;73707.69;10451495;28;20693;-69
2023/08/09 00:10:47;;;;;;;2.40;1.63;;;;;;;-145.68;98.14;73701.69;10450989;28;20373;-69
2023/08/09 00:15:47;;;;;;;4.22;2.10;;;;;;;-145.68;100.00;73721.66;10457520;28;20274;-69
2023/08/09 00:20:48;;;;;;;4.35;2.28;;;;;;;-145.68;99.41;73687.69;10458389;28;20208;-69
2023/08/09 00:25:48;;;;;;;2.88;1.98;;;;;;;-145.68;98.87;73683.69;10458408;28;20235;-69
2023/08/09 00:30:49;;;;;;;9.10;2.50;;;;;;;-145.68;99.42;73673.69;10457916;28;20580;-69
2023/08/09 00:35:49;;;;;;;5.43;2.35;;;;;;;-145.68;96.76;73653.69;10457969;28;20227;-69
2023/08/09 00:40:49;;;;;;;3.97;2.10;;;;;;;-145.68;95.85;73635.72;10457590;28;20216;-69
2023/08/09 00:45:50;;;;;;;4.80;2.20;;;;;;;-145.68;94.23;73617.72;10457352;28;20224;-69
2023/08/09 00:50:51;;;;;;;2.83;1.85;;;;;;;-145.68;93.05;73613.72;10456090;28;20200;-69
2023/08/09 00:55:51;;;;;;;4.72;2.08;;;;;;;-145.68;94.31;73637.72;10455763;28;20669;-69
2023/08/09 01:00:51;;;;;;;4.30;2.10;;;;;;;-145.68;96.17;73649.72;10420463;28;20631;-69
2023/08/09 01:06:15;;;;;;;3.72;2.05;;;;;;;-145.68;96.90;73651.72;10415517;28;20228;-69
2023/08/09 01:11:37;;;;;;;2.65;1.88;;;;;;;-145.68;97.02;73653.69;10430120;28;20233;-68
2023/08/09 01:16:37;;;;;;;6.72;2.10;;;;;;;-145.68;97.14;73647.72;10414009;28;20201;-69
2023/08/09 01:21:38;;;;;;;4.95;2.05;;;;;;;-145.68;96.10;73643.72;10413789;28;20189;-69
2023/08/09 01:26:39;;;;;;;4.82;2.00;;;;;;;-145.68;96.46;73653.69;10396812;28;20812;-68
2023/08/09 01:31:40;;;;;;;2.78;1.75;;;;;;;-145.68;96.89;73663.69;10414666;28;20251;-69
2023/08/09 01:36:41;;;;;;;9.15;2.25;;;;;;;-145.68;98.77;73669.69;10414226;28;20201;-69
2023/08/09 01:41:43;;;;;;;4.15;2.20;;;;;;;-145.68;100.00;73677.69;10396600;28;20235;-69
2023/08/09 01:46:44;;;;;;;3.72;2.13;;;;;;;-145.68;100.00;73665.69;10428972;28;20254;-69
2023/08/09 01:51:45;;;;;;;4.13;2.22;;;;;;;-145.68;100.00;73659.69;10413397;28;20655;-69
2023/08/09 01:56:45;;;;;;;6.35;2.40;;;;;;;-145.68;100.00;73639.72;10413227;28;20239;-69
2023/08/09 02:01:46;;;;;;;5.57;2.20;;;;;;;-145.68;100.00;73635.72;10413229;28;20689;-69
2023/08/09 02:06:46;;;;;;;2.63;2.10;;;;;;;-145.68;100.00;73633.72;10412145;28;20254;-69
2023/08/09 02:11:47;;;;;;;2.88;2.00;;;;;;;-145.68;100.00;73631.72;10411655;28;20196;-69
2023/08/09 02:16:47;;;;;;;2.80;1.85;;;;;;;-145.68;99.64;73623.72;10411749;28;20279;-69
2023/08/09 02:21:48;;;;;;;2.92;2.00;;;;;;;-145.68;99.40;73615.72;10412551;28;20189;-69
2023/08/09 02:26:48;;;;;;;6.00;2.25;;;;;;;-145.68;100.00;73625.72;10411179;28;20721;-69
2023/08/09 02:31:49;;;;;;;5.53;2.53;;;;;;;-145.68;100.00;73623.72;10411865;28;20800;-70
2023/08/09 02:36:50;;;;;;;4.28;2.30;;;;;;;-145.68;100.00;73647.72;10411620;28;20204;-69
2023/08/09 02:41:50;;;;;;;6.75;2.25;;;;;;;-145.68;100.00;73653.69;10412321;28;20200;-69
2023/08/09 02:46:50;;;;;;;5.18;2.20;;;;;;;-145.68;100.00;73655.69;10411348;28;20215;-69
2023/08/09 02:51:51;;;;;;;9.00;2.53;;;;;;;-145.68;100.00;73671.69;10412071;28;20200;-70
2023/08/09 02:56:51;;;;;;;3.38;2.42;;;;;;;-145.68;100.00;73687.69;10411405;28;20301;-69
2023/08/09 03:01:52;;;;;;;4.90;2.72;;;;;;;-145.68;100.00;73681.69;10411596;28;20196;-69
2023/08/09 03:06:52;;;;;;;6.43;2.60;;;;;;;-145.68;100.00;73687.69;10449734;28;20227;-69
2023/08/09 03:11:53;;;;;;;7.32;2.83;;;;;;;-145.68;100.00;73683.69;10451027;28;20191;-69
2023/08/09 03:16:53;;;;;;;3.53;2.70;;;;;;;-145.68;100.00;73683.69;10452704;28;20211;-70
2023/08/09 03:21:54;;;;;;;4.60;3.10;;;;;;;-145.68;100.00;73679.69;10451226;28;20184;-69
2023/08/09 03:26:55;;;;;;;5.85;2.67;;;;;;;-145.68;100.00;73663.69;10451968;28;20215;-70
2023/08/09 03:31:55;;;;;;;5.80;2.72;;;;;;;-145.68;100.00;73647.72;10450768;28;20198;-69
2023/08/09 03:36:56;;;;;;;6.15;3.38;;;;;;;-145.68;100.00;73649.72;10452040;28;20223;-70
2023/08/09 03:41:56;;;;;;;4.82;2.65;;;;;;;-145.68;100.00;73673.69;10450805;28;20192;-69
2023/08/09 03:46:57;;;;;;;3.33;2.60;;;;;;;-145.68;100.00;73677.69;10450150;28;20303;-71
2023/08/09 03:51:57;;;;;;;7.78;3.38;;;;;;;-145.68;100.00;73689.69;10458199;28;20195;-71
2023/08/09 03:56:58;;;;;;;6.18;3.25;;;;;;;-145.68;100.00;73699.69;10458657;28;20202;-71
2023/08/09 04:01:58;;;;;;;4.85;3.42;;;;;;;-145.68;100.00;73697.69;10458699;28;20210;-70
2023/08/09 04:06:59;;;;;;;6.00;3.83;;;;;;;-145.68;100.00;73703.69;10458162;28;20232;-71
2023/08/09 04:11:59;;;;;;;6.57;3.78;;;;;;;-145.68;100.00;73715.66;10458944;28;20267;-70
2023/08/09 04:16:59;;;;;;;6.75;4.03;;;;;;;-145.68;100.00;73709.69;10458692;28;20925;-71
2023/08/09 04:22:00;;;;;;;6.65;3.47;;;;;;;-145.68;100.00;73703.69;10459400;28;20192;-71
2023/08/09 04:27:00;;;;;;;9.35;3.35;;;;;;;-145.68;100.00;73701.69;10458328;28;20314;-72
2023/08/09 04:32:01;;;;;;;8.57;3.88;;;;;;;-145.68;100.00;73707.69;10458150;28;20195;-72
2023/08/09 04:37:01;;;;;;;5.93;3.97;;;;;;;-145.68;100.00;73705.69;10456930;28;20225;-72
2023/08/09 04:42:03;;;;;;;5.15;3.60;;;;;;;-145.68;100.00;73691.69;10457727;28;20358;-71
2023/08/09 04:47:04;;;;;;;7.32;3.85;;;;;;;-145.68;100.00;73673.69;10457607;28;20259;-71
2023/08/09 04:52:04;;;;;;;4.72;3.40;;;;;;;-145.68;100.00;73659.69;10457047;28;20666;-71
2023/08/09 04:57:04;;;;;;;7.03;3.90;;;;;;;-145.68;100.00;73669.69;10456066;28;20578;-71
2023/08/09 05:02:05;;;;;;;5.13;3.67;;;;;;;-145.68;100.00;73671.69;10455741;28;20696;-71
2023/08/09 05:07:05;;;;;;;8.80;3.25;;;;;;;-145.68;100.00;73659.69;10476424;22;21262;-68
2023/08/09 05:12:06;;;;;;;4.15;3.58;;;;;;;-145.68;100.00;73681.69;10429312;28;20196;-67
2023/08/09 05:17:06;;;;;;;4.72;3.85;;;;;;;-145.68;100.00;73697.69;10451127;28;20701;-66
2023/08/09 05:22:07;;;;;;;5.63;3.80;;;;;;;-145.68;100.00;73717.66;10435087;28;20605;-66
2023/08/09 05:27:08;;;;;;;9.73;5.03;;;;;;;-145.68;100.00;73717.66;10435299;28;20421;-65
2023/08/09 05:32:08;;;;;;;12.48;5.70;;;;;;;-145.68;100.00;73727.66;10432949;28;20196;-64
2023/08/09 05:37:08;;;;;;;6.07;3.80;;;;;;;-145.68;100.00;73745.66;10433228;28;20208;-65
2023/08/09 05:42:09;;;;;;;8.50;4.30;;;;;;;-145.68;100.00;73761.66;10437526;28;20180;-66
2023/08/09 05:47:09;;;;;;;4.78;3.58;;;;;;;-145.68;100.00;73765.66;10455004;28;20249;-65
2023/08/09 05:52:10;;;;;;;4.30;3.90;;;;;;;-145.68;100.00;73775.63;10455114;28;20196;-65
2023/08/09 05:57:10;;;;;;;6.22;3.88;;;;;;;-145.68;100.00;73783.63;10441245;28;20205;-66
2023/08/09 06:02:11;;;;;;;6.03;3.58;;;;;;;-145.68;100.00;73797.63;10436474;28;20211;-65
2023/08/09 06:07:11;;;;;;;3.85;3.33;;;;;;;-145.68;100.00;73813.63;10412596;28;20227;-64
2023/08/09 06:12:12;;;;;;;4.32;3.45;;;;;;;-145.68;100.00;73823.63;10412304;28;20636;-65
2023/08/09 06:17:12;;;;;;;3.25;2.95;;;;;;;-145.68;100.00;73849.59;10412683;28;20577;-64
2023/08/09 06:22:13;;;;;;;2.95;2.70;;;;;;;-145.68;100.00;73839.59;10411961;28;20192;-64
2023/08/09 06:27:13;;;;;;;4.78;2.95;;;;;;;-145.68;100.00;73847.59;10412224;28;20221;-64
2023/08/09 06:32:13;;;;;;;2.88;2.17;;;;;;;-145.68;100.00;73867.59;10432320;28;20180;-65
2023/08/09 06:37:14;;;;;;;5.63;3.95;;;;;;;-145.68;100.00;73863.59;10430169;28;20575;-66
2023/08/09 06:42:16;;;;;;;3.78;3.00;;;;;;;-145.68;100.00;73843.59;10432153;28;20187;-66
2023/08/09 06:47:18;;;;;;;3.92;2.60;;;;;;;-145.68;100.00;73823.63;10431078;28;20215;-67
2023/08/09 06:52:18;;;;;;;3.17;2.90;;;;;;;-145.68;100.00;73799.63;10432700;28;20189;-66
2023/08/09 06:57:19;;;;;;;2.80;2.60;;;;;;;-145.68;100.00;73779.63;10413336;28;20269;-66
2023/08/09 07:02:20;;;;;;;3.17;2.95;;;;;;;-145.68;100.00;73741.66;10450837;28;20263;-66
2023/08/09 07:07:21;;;;;;;1.90;1.80;;;;;;;-145.68;100.00;73705.69;10423620;28;20278;-66
2023/08/09 07:12:21;;;;;;;1.48;1.38;;;;;;;-145.68;100.00;73629.72;10442890;28;20191;-66
2023/08/09 07:17:23;;;;;;;0.90;0.90;;;;;;;-145.68;100.00;73607.72;10450921;28;20207;-67
2023/08/09 07:22:23;;;;;;;1.45;1.35;;;;;;;-145.68;100.00;73629.72;10453339;28;20749;-66
2023/08/09 07:27:23;;;;;;;1.67;1.50;;;;;;;-145.68;100.00;73579.75;10458984;28;20222;-66
2023/08/09 07:32:24;;;;;;;1.60;1.50;;;;;;;-145.68;100.00;73585.75;10457467;28;20198;-65
2023/08/09 07:37:24;;;;;;;1.65;1.20;;;;;;;-145.68;100.00;73571.75;10431731;28;20216;-65
2023/08/09 07:42:25;;;;;;;1.88;1.38;;;;;;;-145.68;100.00;73591.75;10428663;28;20531;-64
2023/08/09 07:47:25;;;;;;;1.48;1.38;;;;;;;-145.68;100.00;73565.75;10445766;28;20238;-65
2023/08/09 07:52:26;;;;;;;2.70;1.00;;;;;;;-145.68;100.00;73515.78;10443834;28;20317;-64
2023/08/09 07:57:27;;;;;;;0.93;0.90;;;;;;;-145.68;100.00;73443.84;10444993;28;20712;-64
2023/08/09 08:02:27;;;;;;;1.38;1.10;;;;;;;-145.68;100.00;73361.88;10445369;28;20338;-63
2023/08/09 08:07:28;;;;;;;0.98;0.98;;;;;;;-145.68;100.00;73190.00;10457529;28;20231;-64
2023/08/09 08:12:29;;;;;;;0.77;0.77;;;;;;;-145.68;81.96;73130.03;10433358;28;20679;-64
2023/08/09 08:17:30;;;;;;;0.88;0.82;;;;;;;-145.68;69.94;73080.06;10415518;28;20208;-66
2023/08/09 08:22:30;;;;;;;1.13;1.02;;;;;;;-145.68;65.26;72958.16;10415487;28;20201;-63
2023/08/09 08:27:37;;;;;;;2.88;0.90;;;;;;;-145.68;66.42;73156.00;10445948;28;20235;-65
2023/08/09 08:32:37;;;;;;;1.25;1.15;;;;;;;-145.68;71.03;73092.06;10456384;28;20610;-67
2023/08/09 08:37:38;;;;;;;1.52;0.88;;;;;;;-145.68;64.65;72984.13;10456374;28;20265;-69
2023/08/09 08:42:41;;;;;;;1.13;1.02;;;;;;;-145.68;68.89;73046.09;10456295;28;20192;-68
2023/08/09 08:47:43;;;;;;;1.40;1.30;;;;;;;-145.68;65.17;73030.09;10454742;28;20224;-68
2023/08/09 08:52:46;;;;;;;1.23;1.00;;;;;;;-145.68;63.68;73066.09;10455729;28;20180;-68
2023/08/09 08:57:47;;;;;;;1.45;1.20;;;;;;;-145.68;67.54;73146.03;10456017;28;20212;-66
2023/08/09 09:02:47;;;;;;;1.85;1.15;;;;;;;-145.68;71.52;73207.97;10455037;28;20697;-66
2023/08/09 09:07:50;;;;;;;1.23;1.13;;;;;;;-145.68;72.15;73136.03;10454487;28;20251;-69
2023/08/09 09:12:55;;;;;;;1.42;0.90;;;;;;;-145.68;65.68;73106.06;10434524;28;20189;-67
2023/08/09 09:17:56;;;;;;;1.10;0.95;;;;;;;-145.68;71.95;73221.97;10436877;28;20200;-67
2023/08/09 09:22:56;;;;;;;1.08;0.98;;;;;;;-145.68;68.92;73190.00;10444052;28;20680;-66
2023/08/09 09:27:57;;;;;;;1.40;1.30;;;;;;;-145.68;68.76;73158.00;10453764;28;20599;-66
2023/08/09 09:33:03;;;;;;;10.25;1.65;;;;;;;-145.68;69.58;73158.00;10430074;28;20557;-67
2023/08/09 09:38:05;;;;;;;1.63;1.30;;;;;;;-145.68;69.21;73148.03;10413173;28;20243;-67
2023/08/09 09:43:05;;;;;;;2.25;1.25;;;;;;;-145.68;68.41;73096.06;10412675;28;20185;-68
2023/08/09 09:48:16;;;;;;;1.35;1.25;;;;;;;-145.68;65.00;73056.09;10414268;28;20480;-67
2023/08/09 09:53:18;;;;;;;1.17;1.08;;;;;;;-145.68;65.41;73020.13;10439614;28;20298;-67
2023/08/09 09:58:18;;;;;;;2.35;1.17;;;;;;;-145.68;66.76;73022.13;10424897;28;20205;-66
2023/08/09 10:03:23;;;;;;;2.65;1.10;;;;;;;-145.68;63.71;72946.16;10417109;28;20200;-67
2023/08/09 10:08:26;;;;;;;1.95;1.30;;;;;;;-145.68;62.62;72938.16;10425952;28;20609;-66
2023/08/09 10:13:27;;;;;;;1.30;1.20;;;;;;;-145.68;58.84;72848.25;10411332;28;20216;-67
2023/08/09 10:18:33;;;;;;;2.13;1.25;;;;;;;-145.68;60.48;72936.19;10427377;28;20298;-68
2023/08/09 10:23:33;;;;;;;1.77;1.10;;;;;;;-145.68;57.78;72832.25;10430296;28;20196;-67
2023/08/09 10:28:45;;;;;;;1.10;0.90;;;;;;;-145.68;54.51;72832.25;10428774;28;20595;-65
2023/08/09 10:34:07;;;;;;;2.47;1.27;;;;;;;-145.68;53.10;72814.28;10417232;28;20571;-67
2023/08/09 10:39:18;;;;;;;2.42;1.30;;;;;;;-145.68;54.89;72864.22;10410652;28;20762;-65
2023/08/09 10:44:31;;;;;;;2.97;1.30;;;;;;;-145.68;50.82;72724.34;10410594;28;20651;-64
2023/08/09 10:49:53;;;;;;;0.85;0.85;;;;;;;-145.68;47.97;72662.38;10409752;28;20307;-67
2023/08/09 10:55:18;;;;;;;3.70;1.27;;;;;;;-145.68;51.37;72928.19;10408652;28;20199;-64
2023/08/09 11:00:20;;;;;;;1.35;1.20;;;;;;;-145.68;55.36;73158.00;10409675;28;20702;-65
2023/08/09 11:05:22;;;;;;;1.40;1.10;;;;;;;-145.68;55.15;72988.13;10409926;28;20223;-65
2023/08/09 11:10:37;;;;;;;1.08;0.90;;;;;;;-145.68;54.51;72936.19;10451117;22;20251;-68
2023/08/09 11:15:41;;;;;;;2.10;1.20;;;;;;;-145.68;51.63;72712.34;10450249;28;20196;-70
2023/08/09 11:20:42;;;;;;;1.27;1.05;;;;;;;-145.68;50.35;72720.34;10450681;28;20212;-71
2023/08/09 11:25:43;;;;;;;3.40;1.02;;;;;;;-145.68;46.99;72458.56;10450749;28;20218;-69
2023/08/09 11:30:45;;;;;;;2.58;0.90;;;;;;;-145.68;42.58;72390.63;10449403;28;20281;-69
2023/08/09 11:35:45;;;;;;;0.98;0.80;;;;;;;-145.68;40.31;72300.69;10450710;28;20188;-69
2023/08/09 11:40:49;;;;;;;1.20;0.80;;;;;;;-145.68;40.66;72372.63;10450414;28;20324;-71
2023/08/09 11:45:52;;;;;;;1.02;0.60;;;;;;;-145.68;40.40;72414.59;10450373;28;20242;-68
2023/08/09 11:51:13;;;;;;;2.67;0.90;;;;;;;-145.68;43.34;72566.47;10449283;28;20212;-69
2023/08/09 11:56:16;;;;;;;2.65;1.00;;;;;;;-145.68;44.84;72696.34;10450226;28;20188;-69
2023/08/09 12:01:24;;;;;;;1.40;1.05;;;;;;;-145.68;44.62;72700.34;10449049;28;20211;-69
2023/08/09 12:06:39;;;;;;;2.00;0.88;;;;;;;-145.68;43.79;72658.38;10448944;28;20254;-70
2023/08/09 12:11:49;;;;;;;2.30;1.10;;;;;;;-145.68;42.58;72528.50;10455793;28;20246;-70
2023/08/09 12:16:49;;;;;;;1.25;0.98;;;;;;;-145.68;42.25;72448.56;10476280;28;20194;-67
2023/08/09 12:21:50;;;;;;;1.55;0.98;;;;;;;-145.68;44.40;72704.34;10472941;28;20208;-68
2023/08/09 12:26:50;;;;;;;3.15;1.05;;;;;;;-145.68;43.11;72506.50;10456915;28;20226;-68
2023/08/09 12:31:51;;;;;;;1.58;1.10;;;;;;;-145.68;41.47;72420.59;10455580;28;20299;-69
2023/08/09 12:36:51;;;;;;;1.52;1.02;;;;;;;-145.68;40.50;72312.69;10457082;28;20188;-71
2023/08/09 12:41:52;;;;;;;1.92;1.13;;;;;;;-145.68;38.34;72222.78;10456420;28;20207;-67
2023/08/09 12:46:53;;;;;;;3.25;0.77;;;;;;;-145.68;38.22;72396.63;10456564;28;20219;-69
2023/08/09 12:51:54;;;;;;;1.55;0.90;;;;;;;-145.68;41.51;72514.50;10455128;28;20620;-68
2023/08/09 12:56:54;;;;;;;3.78;1.17;;;;;;;-145.68;41.06;72590.44;10455629;28;20186;-68
2023/08/09 13:01:54;;;;;;;2.03;0.98;;;;;;;-145.68;41.79;72582.44;10467230;28;20222;-70
2023/08/09 13:06:55;;;;;;;1.38;1.00;;;;;;;-145.68;39.33;72458.56;10458417;28;20295;-68
2023/08/09 13:12:25;;;;;;;1.60;0.98;;;;;;;-145.68;38.71;72280.72;10454158;28;20252;-68
2023/08/09 13:17:25;;;;;;;1.85;0.85;;;;;;;-145.68;38.64;72442.56;10451263;28;20199;-68
2023/08/09 13:22:25;;;;;;;1.88;1.10;;;;;;;-145.68;38.26;72500.53;10455620;28;20196;-68
2023/08/09 13:27:26;;;;;;;1.63;1.10;;;;;;;-145.68;39.14;72584.44;10454659;28;20314;-69
2023/08/09 13:32:26;;;;;;;2.22;0.82;;;;;;;-145.68;42.45;72748.31;10455489;28;20180;-69
2023/08/09 13:37:26;;;;;;;4.88;0.90;;;;;;;-145.68;42.92;72756.31;10453928;28;20198;-68
2023/08/09 13:42:27;;;;;;;1.88;0.95;;;;;;;-145.68;43.35;72798.28;10455249;28;20196;-69
2023/08/09 13:47:27;;;;;;;2.05;1.10;;;;;;;-145.68;42.42;72624.41;10454641;28;20227;-69
2023/08/09 13:52:27;;;;;;;1.35;1.05;;;;;;;-145.68;39.13;72448.56;10454753;28;20196;-68
2023/08/09 13:57:28;;;;;;;2.47;0.75;;;;;;;-145.68;35.96;72276.72;10454159;28;20249;-68
2023/08/09 14:02:28;;;;;;;3.10;0.90;;;;;;;-145.68;33.33;72104.88;10454315;28;20199;-68
2023/08/09 14:07:28;;;;;;;2.22;1.10;;;;;;;-145.68;34.05;72314.69;10452427;28;20478;-68
2023/08/09 14:12:29;;;;;;;2.58;0.98;;;;;;;-145.68;36.01;72286.72;10453846;28;20192;-69
2023/08/09 14:17:29;;;;;;;2.60;0.90;;;;;;;-145.68;35.48;72320.69;10453582;28;20202;-68
2023/08/09 14:22:30;;;;;;;1.50;0.90;;;;;;;-145.68;38.62;72480.53;10452052;28;20249;-68
2023/08/09 14:27:30;;;;;;;1.33;0.85;;;;;;;-145.68;38.62;72552.47;10453034;28;20219;-69
2023/08/09 14:32:30;;;;;;;0.77;0.75;;;;;;;-145.68;36.48;72232.75;10452558;28;20257;-67
2023/08/09 14:37:31;;;;;;;1.87;0.90;;;;;;;-145.68;32.29;71873.09;10452873;28;20191;-68
2023/08/09 14:42:31;;;;;;;1.83;0.90;;;;;;;-145.68;29.65;71777.22;10451531;28;20580;-68
2023/08/09 14:47:32;;;;;;;8.83;0.90;;;;;;;-145.68;30.16;71865.13;10452383;28;20470;-67
2023/08/09 14:52:32;;;;;;;1.98;1.02;;;;;;;-145.68;29.79;71831.16;10452637;28;20496;-69
2023/08/09 14:57:32;;;;;;;1.97;0.67;;;;;;;-145.68;29.62;71707.28;10452035;28;20690;-69
2023/08/09 15:02:33;;;;;;;1.03;0.77;;;;;;;-145.68;30.22;71853.13;10452481;28;20941;-69
2023/08/09 15:07:33;;;;;;;1.48;0.95;;;;;;;-145.68;29.41;71849.13;10451677;28;20492;-68
2023/08/09 15:12:34;;;;;;;2.42;0.73;;;;;;;-145.68;29.09;71745.25;10450928;28;20196;-69
2023/08/09 15:17:34;;;;;;;2.03;0.70;;;;;;;-145.68;27.65;71523.47;10451826;28;20238;-68
2023/08/09 15:22:34;;;;;;;1.20;0.70;;;;;;;-145.68;28.50;71779.19;10451994;28;20446;-68
2023/08/09 15:27:36;;;;;;;3.03;0.90;;;;;;;-145.68;29.45;71917.06;10451591;28;20723;-69
2023/08/09 15:32:36;;;;;;;2.05;0.80;;;;;;;-145.68;31.64;72308.69;10451385;28;20223;-68
2023/08/09 15:37:37;;;;;;;1.27;0.75;;;;;;;-145.68;33.08;72318.69;10451475;28;20652;-69
2023/08/09 15:42:37;;;;;;;1.60;0.80;;;;;;;-145.68;33.35;72460.56;10451883;28;20188;-68
2023/08/09 15:47:38;;;;;;;0.95;0.73;;;;;;;-145.68;34.40;72408.59;10442283;28;20599;-69
2023/08/09 15:52:40;;;;;;;1.40;0.60;;;;;;;-145.68;31.15;72086.91;10418553;28;20283;-69
2023/08/09 15:57:40;;;;;;;2.03;0.75;;;;;;;-145.68;30.26;71941.03;10418439;28;20212;-68
2023/08/09 16:02:40;;;;;;;2.07;0.97;;;;;;;-145.68;31.08;72092.91;10418501;28;20184;-70
2023/08/09 16:07:41;;;;;;;3.75;1.00;;;;;;;-145.68;33.44;72378.63;10417788;28;20486;-69
2023/08/09 16:12:41;;;;;;;2.75;1.02;;;;;;;-145.68;35.48;72452.56;10418201;28;20284;-69
2023/08/09 16:17:42;;;;;;;2.47;0.70;;;;;;;-145.68;33.87;72268.72;10417662;28;20204;-70
2023/08/09 16:22:42;;;;;;;2.00;0.90;;;;;;;-145.68;32.96;72326.69;10417728;28;20211;-69
2023/08/09 16:27:42;;;;;;;3.22;0.90;;;;;;;-145.68;34.37;72360.66;10417217;28;20224;-69
2023/08/09 16:32:43;;;;;;;2.33;0.90;;;;;;;-145.68;35.06;72410.59;10417317;28;20188;-68
2023/08/09 16:37:43;;;;;;;2.70;0.80;;;;;;;-145.68;34.89;72536.50;10417099;28;20457;-68
2023/08/09 16:42:45;;;;;;;4.95;0.80;;;;;;;-145.68;35.45;72686.38;10416795;28;20203;-69
2023/08/09 16:47:45;;;;;;;2.88;0.75;;;;;;;-145.68;36.39;72784.28;10416607;28;20223;-69
2023/08/09 16:52:46;;;;;;;0.77;0.73;;;;;;;-145.68;37.40;72778.28;10416229;28;20226;-69
2023/08/09 16:57:47;;;;;;;2.28;0.93;;;;;;;-145.68;37.71;72802.28;10415643;28;20212;-68
2023/08/09 17:02:47;;;;;;;1.27;0.77;;;;;;;-145.68;37.73;72750.31;10416260;28;20193;-68
2023/08/09 17:07:47;;;;;;;2.45;0.98;;;;;;;-145.68;39.22;72836.25;10437184;23;22090;-71
2023/08/09 17:12:48;;;;;;;5.93;1.10;;;;;;;-145.68;38.92;72868.22;10412559;28;20208;-72
2023/08/09 17:17:48;;;;;;;1.60;0.88;;;;;;;-145.68;39.31;72936.19;10415203;28;20204;-72
2023/08/09 17:22:51;;;;;;;2.45;0.80;;;;;;;-145.68;40.48;73050.09;10415382;28;20189;-72
2023/08/09 17:27:51;;;;;;;1.08;0.70;;;;;;;-145.68;41.04;73066.09;10414659;28;20726;-72
2023/08/09 17:32:52;;;;;;;2.25;0.90;;;;;;;-145.68;41.86;73140.03;10414947;28;20198;-71
2023/08/09 17:37:53;;;;;;;1.40;0.75;;;;;;;-145.68;43.79;73144.03;10414502;28;20215;-71
2023/08/09 17:42:54;;;;;;;1.20;0.73;;;;;;;-145.68;45.49;73219.97;10414572;28;20567;-71
2023/08/09 17:47:54;;;;;;;3.83;1.02;;;;;;;-145.68;46.82;73263.94;10414043;28;20225;-71
2023/08/09 17:52:54;;;;;;;1.05;0.95;;;;;;;-145.68;49.96;73397.84;10412677;28;20327;-71
2023/08/09 17:57:55;;;;;;;1.83;0.90;;;;;;;-145.68;51.94;73443.84;10413975;28;20201;-71
2023/08/09 18:02:55;;;;;;;2.47;0.93;;;;;;;-145.68;54.16;73585.75;10413564;28;20196;-71
2023/08/09 18:07:56;;;;;;;2.20;1.00;;;;;;;-145.68;54.73;73571.75;10412400;28;20652;-71
2023/08/09 18:12:56;;;;;;;2.10;1.10;;;;;;;-145.68;56.51;73613.72;10413211;28;20188;-70
2023/08/09 18:17:57;;;;;;;4.93;1.25;;;;;;;-145.68;60.36;73751.66;10413088;28;20201;-70
2023/08/09 18:22:57;;;;;;;3.08;1.60;;;;;;;-145.68;64.16;73831.59;10413079;28;20192;-69
2023/08/09 18:27:57;;;;;;;1.02;0.93;;;;;;;-145.68;67.19;73863.59;10411283;28;20262;-70
2023/08/09 18:32:58;;;;;;;3.28;2.30;;;;;;;-145.68;66.51;73827.59;10412895;28;20197;-70
2023/08/09 18:37:58;;;;;;;4.50;1.77;;;;;;;-145.68;68.81;73877.59;10400365;28;20216;-70
2023/08/09 18:42:58;;;;;;;6.90;1.20;;;;;;;-145.68;70.32;73905.56;10388300;28;20208;-69
2023/08/09 18:47:59;;;;;;;2.15;1.30;;;;;;;-145.68;73.01;73945.56;10390407;28;20266;-70
2023/08/09 18:52:59;;;;;;;2.13;1.77;;;;;;;-145.68;75.07;73951.53;10389102;28;20195;-69
2023/08/09 18:58:00;;;;;;;3.63;1.60;;;;;;;-145.68;76.38;73991.53;10385918;28;20212;-70
2023/08/09 19:03:01;;;;;;;5.70;1.52;;;;;;;-145.68;79.50;74023.50;10389907;28;20739;-69
2023/08/09 19:08:02;;;;;;;9.00;2.00;;;;;;;-145.68;82.66;74045.50;10389017;28;20657;-69
2023/08/09 19:13:03;;;;;;;7.68;2.00;;;;;;;-145.68;84.92;74065.50;10389630;28;20201;-69
2023/08/09 19:18:03;;;;;;;5.03;1.73;;;;;;;-145.68;85.65;74091.47;10388533;28;20686;-70
2023/08/09 19:23:04;;;;;;;4.22;1.92;;;;;;;-145.68;87.14;74087.47;10389416;28;20255;-70
2023/08/09 19:28:05;;;;;;;4.47;2.42;;;;;;;-145.68;89.80;74121.47;10387898;28;20216;-70
2023/08/09 19:33:06;;;;;;;2.97;1.95;;;;;;;-145.68;90.73;74125.47;10378049;28;20277;-69
2023/08/09 19:38:07;;;;;;;3.35;1.50;;;;;;;-145.68;93.03;74147.47;10407076;28;20200;-69
2023/08/09 19:43:07;;;;;;;3.57;1.60;;;;;;;-145.68;95.52;74159.44;10410417;28;20196;-69
2023/08/09 19:48:08;;;;;;;3.90;2.10;;;;;;;-145.68;97.62;74185.44;10410076;28;20243;-69
2023/08/09 19:53:08;;;;;;;7.90;2.53;;;;;;;-145.68;100.00;74201.44;10408766;28;20255;-70
2023/08/09 19:58:09;;;;;;;7.43;3.93;;;;;;;-145.68;100.00;74221.44;10389287;28;20304;-70
2023/08/09 20:03:09;;;;;;;6.57;2.27;;;;;;;-145.68;100.00;74233.41;10386939;28;20404;-70
2023/08/09 20:08:11;;;;;;;2.03;1.67;;;;;;;-145.68;100.00;74257.41;10387854;28;20233;-69
2023/08/09 20:13:11;;;;;;;3.20;1.70;;;;;;;-145.68;100.00;74271.41;10388707;28;20628;-70
2023/08/09 20:18:12;;;;;;;2.67;2.00;;;;;;;-145.68;100.00;74285.41;10388942;28;20220;-70
2023/08/09 20:23:13;;;;;;;1.93;1.53;;;;;;;-145.68;100.00;74303.38;10387411;28;20193;-70
2023/08/09 20:28:13;;;;;;;5.23;1.87;;;;;;;-145.68;100.00;74321.38;10389024;28;20224;-70
2023/08/09 20:33:14;;;;;;;1.40;1.23;;;;;;;-145.68;100.00;74327.38;10395227;28;20197;-69
2023/08/09 20:38:14;;;;;;;1.50;1.40;;;;;;;-145.68;100.00;74337.38;10374477;28;20217;-69
2023/08/09 20:43:14;;;;;;;3.57;1.73;;;;;;;-145.68;100.00;74347.38;10375625;28;20189;-70
2023/08/09 20:48:16;;;;;;;2.77;1.50;;;;;;;-145.68;100.00;74353.38;10375014;28;20218;-70
2023/08/09 20:53:16;;;;;;;9.43;1.90;;;;;;;-145.68;100.00;74375.38;10375167;28;20189;-69
2023/08/09 20:58:16;;;;;;;4.20;1.90;;;;;;;-145.68;100.00;74401.34;10374757;28;20581;-70
2023/08/09 21:03:17;;;;;;;3.33;1.73;;;;;;;-145.68;100.00;74407.34;10374874;28;20618;-69
2023/08/09 21:08:17;;;;;;;5.93;1.70;;;;;;;-145.68;100.00;74413.34;10374331;28;20263;-68
2023/08/09 21:13:18;;;;;;;5.83;1.50;;;;;;;-145.68;100.00;74421.34;10374405;28;20198;-69
2023/08/09 21:18:18;;;;;;;3.30;1.47;;;;;;;-145.68;100.00;74439.34;10374084;28;20244;-68
2023/08/09 21:23:19;;;;;;;3.90;1.67;;;;;;;-145.68;100.00;74439.34;10373773;28;20608;-68
2023/08/09 21:28:19;;;;;;;4.43;1.43;;;;;;;-145.68;100.00;74451.34;10374315;28;20232;-69
2023/08/09 21:33:20;;;;;;;1.93;1.30;;;;;;;-145.68;100.00;74455.34;10373856;28;20259;-68
2023/08/09 21:38:20;;;;;;;6.10;1.67;;;;;;;-145.68;100.00;74459.34;10373892;28;20355;-69
2023/08/09 21:43:21;;;;;;;7.93;1.60;;;;;;;-145.68;100.00;74461.34;10373507;28;20192;-69
2023/08/09 21:48:21;;;;;;;4.17;1.60;;;;;;;-145.68;100.00;74465.31;10373453;28;20348;-68
2023/08/09 21:53:21;;;;;;;3.37;1.80;;;;;;;-145.68;100.00;74479.31;10373322;28;20185;-69
2023/08/09 21:58:22;;;;;;;2.47;1.40;;;;;;;-145.68;100.00;74483.31;10373079;28;20292;-68
2023/08/09 22:03:22;;;;;;;5.53;2.40;;;;;;;-145.68;100.00;74493.31;10388321;28;20652;-68
2023/08/09 22:08:23;;;;;;;2.03;1.50;;;;;;;-145.68;100.00;74511.31;10372289;28;20229;-69
2023/08/09 22:13:23;;;;;;;2.57;1.67;;;;;;;-145.68;100.00;74517.31;10372683;28;20189;-68
2023/08/09 22:18:23;;;;;;;2.53;1.53;;;;;;;-145.68;100.00;74513.31;10372253;28;20232;-68
2023/08/09 22:23:24;;;;;;;2.00;1.50;;;;;;;-145.68;100.00;74511.31;10372283;28;20185;-68
2023/08/09 22:28:24;;;;;;;1.93;1.40;;;;;;;-145.68;100.00;74513.31;10372025;28;20228;-68
2023/08/09 22:33:24;;;;;;;3.47;1.60;;;;;;;-145.68;100.00;74535.31;10371867;28;20292;-68
2023/08/09 22:38:25;;;;;;;1.77;1.60;;;;;;;-145.68;100.00;74529.31;10371702;28;20197;-68
2023/08/09 22:43:27;;;;;;;2.97;1.50;;;;;;;-145.68;100.00;74519.31;10370186;28;20227;-68